Boulder City, Nevada Weather observations

Data are for observation ending at time listed.
 Day   Time    Ave.   Ave.  Ave.  Vector   Max.   Stn.    Total    Solar   Ave.  
  of    of     Air    Rel.  Wind   Wind    Wind   Baro.  Precip.   Rad.    Soil  
Year   Day     Temp.  Hum.  Speed  Dir.    Gust   Pres.                    Temp. 
2026   (PST)    F      %     mph   deg.    mph     mb.     in.     W/m2     F   
------------------------------------------------------------------------------
 125   13:30   73.5    21    5.7   167     14.7   926.6    0.00     876    81.4
 125   13:40   73.7    21    4.7   130     10.1   926.6    0.00     642    81.7
 125   13:50   73.7    20    3.5   212      8.0   926.5    0.00     631    82.0
 125   14:00   74.0    20    4.9   151     13.2   926.5    0.00     879    82.3
 125   14:10   74.0    20    3.7   144      9.4   926.4    0.00     844    82.6
 125   14:20   75.1    19    6.7   112     13.7   926.3    0.00     789    82.8
 125   14:30   74.8    18    5.0   104     15.2   926.2    0.00     756    83.1
 125   14:40   75.1    18    4.2   212     11.2   926.2    0.00     446    83.4
 125   14:50   73.1    19    4.0   182      9.0   926.1    0.00     398    83.6
 125   15:00   72.4    20    4.2   215      8.4   925.9    0.00     152    83.8
 125   15:10   73.2    19    3.5   168     12.5   925.6    0.00     579    84.0
 125   15:20   74.0    18    4.3   232      8.2   925.5    0.00     571    84.3
 125   15:30   74.0    18    2.2   129      7.1   925.5    0.00     538    84.5
 125   15:40   74.4    18    4.8   166     13.4   925.5    0.00     443    84.7
 125   15:50   74.6    18    5.6   159     11.2   925.5    0.00     442    84.8
 125   16:00   74.7    18    5.0   142      9.7   925.5    0.00     261    84.9
 125   16:10   73.6    18    5.3   144     10.4   925.4    0.00     246    85.0
 125   16:20   73.3    18    4.7   152     10.4   925.4    0.00     165    85.0
 125   16:30   74.3    18    2.4   328      6.1   925.2    0.00     323    85.1
 125   16:40   74.0    17    4.8   236      8.8   925.3    0.00     288    85.2
 125   16:50   74.3    16    2.8   196      6.9   925.4    0.00     256    85.2
 125   17:00   74.7    16    4.4   167     10.6   925.4    0.00     191    85.2
 125   17:10   74.3    16    4.0   169      9.6   925.4    0.00     197    85.2
 125   17:20   73.3    18    6.8   163     12.9   925.3    0.00     164    85.2
 125   17:30   72.5    18    5.2   177     13.1   925.2    0.00     135    85.2
 125   17:40   72.4    18    5.3   152     10.9   925.2    0.00     108    85.1
 125   17:50   72.3    18    5.7   133     10.5   925.2    0.00      57    85.1
 125   18:00   71.8    19    6.7   158     13.7   925.2    0.00      23    85.1
 125   18:10   71.4    19    6.3   164     12.9   925.3    0.00      17    85.0
 125   18:20   71.0    19    5.9   148     12.8   925.3    0.00      12    85.0
 125   18:30   70.8    19    6.8   165     11.0   925.4    0.00       7    84.9
 125   18:40   70.2    20    6.3   168     12.6   925.5    0.00       3    84.8
 125   18:50   69.9    20    6.6   168     11.7   925.7    0.00       1    84.7
 125   19:00   69.5    20    5.5   173     12.3   925.8    0.00       0    84.6
 125   19:10   69.1    20    5.6   172     10.9   925.9    0.00       0    84.5
 125   19:20   68.8    21    4.4   161     10.2   926.0    0.00       0    84.4
 125   19:30   68.6    21    5.5   158     11.4   926.2    0.00       0    84.3
 125   19:40   68.4    21    6.0   172     15.0   926.3    0.00       0    84.2
 125   19:50   68.2    22    6.9   163     14.2   926.4    0.00       0    84.1
 125   20:00   68.0    22    6.8   163     12.7   926.6    0.00       0    83.9
 125   20:10   67.9    22    6.5   169     12.5   926.8    0.00       0    83.8
 125   20:20   67.6    22    6.5   166     13.4   926.8    0.00       0    83.7
 125   20:30   67.4    23    5.9   172     11.4   926.9    0.00       0    83.5
 125   20:40   67.2    23    5.2   163     11.5   927.0    0.00       0    83.4
 125   20:50   67.0    23    5.7   180     11.5   927.1    0.00       0    83.2
 125   21:00   66.7    23    5.2   183     10.2   927.2    0.00       0    83.0
 125   21:10   66.5    24    3.8   195      8.6   927.3    0.00       0    82.9
 125   21:20   66.3    24    4.7   189      8.2   927.3    0.00       0    82.8
 125   21:30   65.7    24    4.0   224      7.2   927.4    0.00       0    82.6
 125   21:40   65.5    24    4.8   220      9.4   927.4    0.00       0    82.5
 125   21:50   65.4    24    4.6   227      6.9   927.4    0.00       0    82.3
 125   22:00   65.2    24    4.5   220      8.5   927.4    0.00       0    82.2
 125   22:10   64.9    25    4.0   223      6.9   927.5    0.00       0    82.1
 125   22:20   64.7    25    4.4   218      7.1   927.7    0.00       0    81.9
 125   22:30   64.4    25    3.9   217      6.1   927.8    0.00       0    81.7
 125   22:40   63.9    25    3.0   220      4.4   927.9    0.00       0    81.6
 125   22:50   63.6    25    3.5   225      5.6   927.9    0.00       0    81.4
 125   23:00   63.5    26    3.0   199      4.2   928.0    0.00       0    81.3
 125   23:10   62.9    26    2.9   208      4.5   928.0    0.00       0    81.1
 125   23:20   62.9    26    3.2   211      4.3   928.0    0.00       0    81.0
 125   23:30   62.5    26    3.2   207      4.8   927.9    0.00       0    80.8
 125   23:40   62.7    26    3.2   224      5.3   927.9    0.00       0    80.7
 125   23:50   63.0    26    3.1   223      5.0   927.9    0.00       0    80.5
 126    0:00   62.7    26    2.6   200      4.2   927.9    0.00       0    80.4
 126    0:10   62.6    27    3.2   209      5.4   927.9    0.00       0    80.2
 126    0:20   62.7    27    3.7   219      6.6   927.9    0.00       0    80.1
 126    0:30   62.5    28    4.1   216      6.9   927.9    0.00       0    80.0
 126    0:40   62.4    28    3.3   214      5.0   927.8    0.00       0    79.8
 126    0:50   62.3    29    3.8   217      7.6   927.8    0.00       0    79.7
 126    1:00   62.2    30    4.1   215      7.2   927.8    0.00       0    79.5
 126    1:10   62.1    31    5.0   217      8.3   927.9    0.00       0    79.4
 126    1:20   61.8    32    4.7   196     10.2   927.9    0.00       0    79.2
 126    1:30   61.4    33    3.5   187      7.5   928.0    0.00       0    79.1
 126    1:40   60.4    33    3.0   208      4.1   928.1    0.00       0    79.0
 126    1:50   59.9    33    3.0   186      4.7   928.1    0.00       0    78.8
 126    2:00   60.3    32    4.6   184      7.3   928.1    0.00       0    78.7
 126    2:10   60.7    32    3.6   210      5.3   928.1    0.00       0    78.5
 126    2:20   60.0    32    2.6   187      4.2   928.2    0.00       0    78.4
 126    2:30   59.4    34    2.8   183      4.5   928.3    0.00       0    78.3
 126    2:40   58.9    35    2.7   179      3.9   928.4    0.00       0    78.1
 126    2:50   58.5    36    3.0   178      4.2   928.5    0.00       0    78.0
 126    3:00   58.9    35    2.4   163      4.2   928.5    0.00       0    77.9
 126    3:10   59.8    34    4.3   169      6.2   928.6    0.00       0    77.8
 126    3:20   59.7    36    4.8   174      8.3   928.7    0.00       0    77.6
 126    3:30   60.0    35    4.9   167      9.0   928.8    0.00       0    77.5
 126    3:40   60.2    35    3.8   175      7.6   928.9    0.00       0    77.4
 126    3:50   60.0    35    4.3   175      7.5   928.9    0.00       0    77.3
 126    4:00   60.0    35    4.1   164      7.0   929.0    0.00       0    77.1
 126    4:10   60.0    35    4.7   182      8.9   929.0    0.00       0    77.0
 126    4:20   59.5    36    3.5   212      8.0   929.0    0.00       0    76.9
 126    4:30   58.9    36    4.2   189      7.6   929.0    0.00       0    76.7
 126    4:40   59.5    36    6.0   174     10.0   929.2    0.00       2    76.6
 126    4:50   59.0    36    3.8   196      6.6   929.2    0.00       6    76.5
 126    5:00   58.4    37    4.5   226      7.0   929.3    0.00      16    76.4
 126    5:10   58.8    36    3.4   195      5.3   929.4    0.00      20    76.3
 126    5:20   59.5    35    3.7   210      7.1   929.5    0.00      26    76.1
 126    5:30   60.7    33    4.3   217      6.9   929.6    0.00      30    76.0
 126    5:40   61.1    33    4.3   225      7.2   929.9    0.00     120    75.9
 126    5:50   61.7    33    3.7   219      6.2   930.1    0.00     175    75.8
 126    6:00   62.3    32    4.2   214      7.7   930.4    0.00     209    75.6
 126    6:10   62.9    32    3.1   194      5.5   930.7    0.00     243    75.5
 126    6:20   64.0    31    3.1   167      4.9   931.0    0.00     277    75.4
 126    6:30   64.4    30    3.1   178      5.0   931.1    0.00     311    75.3
 126    6:40   64.9    30    2.3   188      5.3   931.3    0.00     345    75.2
 126    6:50   66.8    29    2.2   131      5.5   931.5    0.00     379    75.1
 126    7:00   67.1    28    4.2   140      7.9   931.6    0.00     413    75.0
 126    7:10   67.3    28    4.2   138      9.0   931.7    0.00     446    74.9
 126    7:20   68.0    28    3.3   148      7.4   931.8    0.00     479    74.8
 126    7:30   67.5    28    5.2   164     10.9   931.9    0.00     510    74.9
 126    7:40   68.4    27    3.7   144     10.7   932.0    0.00     541    74.8
 126    7:50   69.4    26    5.3   122     13.1   932.1    0.00     572    74.8
 126    8:00   70.3    25    4.4   115      8.2   932.2    0.00     602    74.9
 126    8:10   71.0    25    3.7   123      9.9   932.3    0.00     631    74.9
 126    8:20   71.4    24    4.4   155      8.3   932.4    0.00     659    74.9
 126    8:30   71.2    24    4.5   151      9.7   932.5    0.00     684    75.0
 126    8:40   71.5    24    3.6   181      8.2   932.6    0.00     685    75.1
 126    8:50   72.0    23    4.2   164      7.5   932.6    0.00     676    75.2
 126    9:00   72.4    23    2.8   194      6.1   932.7    0.00     632    75.3
 126    9:10   73.5    22    5.5   120     15.8   932.7    0.00     775    75.5
 126    9:20   73.3    22    3.0   204      8.4   932.8    0.00     688    75.6
 126    9:30   74.1    22    4.3   148     11.4   932.8    0.00     784    75.8
 126    9:40   74.9    21    3.4   107      8.3   932.9    0.00     820    76.0
 126    9:50   76.0    20    4.0    58     10.0   932.9    0.00     815    76.2
 126   10:00   75.6    21    3.7    68      9.4   933.0    0.00     767    76.4
 126   10:10   76.5    20    3.2   116      7.1   933.0    0.00     639    76.7
 126   10:20   77.0    20    3.6    91      9.5   933.1    0.00     770    76.9
 126   10:30   77.0    20    3.0   138     12.3   933.1    0.00     775    77.2
 126   10:40   77.2    19    3.1   105      8.8   933.1    0.00     882    77.5
 126   10:50   77.7    19    3.3    49      6.9   933.1    0.00     828    77.8
 126   11:00   77.0    20    2.3   116      7.5   933.0    0.00     918    78.1
 126   11:10   78.7    18    3.5    59      8.6   932.9    0.00     796    78.4
 126   11:20   77.5    19    3.5    54      8.8   932.9    0.00     894    78.7
 126   11:30   77.3    20    2.8    44      7.7   932.8    0.00     944    79.1
 126   11:40   78.8    19    3.8     8      9.2   932.7    0.00     944    79.4
 126   11:50   79.6    18    5.1    12     11.7   932.7    0.00     943    79.8
 126   12:00   79.8    18    5.5    33     13.0   932.6    0.00     939    80.1
 126   12:10   79.5    18    5.9    20     11.9   932.6    0.00     933    80.4
 126   12:20   79.2    18    6.3    15     12.5   932.5    0.00     926    80.8
 126   12:30   79.2    18    5.3     9     10.0   932.5    0.00     918    81.1
 126   12:40   79.7    18    4.2    16      8.2   932.5    0.00     908    81.5
 126   12:50   79.5    18    4.0    13      8.3   932.4    0.00     895    81.9
 126   13:00   79.3    18    2.8   356     10.4   932.4    0.00     883    82.2
 126   13:10   79.4    18    3.8   334      9.5   932.3    0.00     868    82.5
 126   13:20   79.9    17    5.3   344      9.1   932.2    0.00     852    82.8

Return to Boulder City, Nevada graphs page.


Western Regional Climate Center,wrcc@dri.edu